createdAt,value
2023-04-01T00:02:57.772Z,79.26
2023-04-01T00:06:00.680Z,77.06
2023-04-01T00:09:02.604Z,74.91
2023-04-01T00:12:05.999Z,73.60
2023-04-01T00:15:11.115Z,72.57
2023-04-01T00:18:14.846Z,71.53
2023-04-01T00:21:17.084Z,72.23
2023-04-01T00:24:20.137Z,72.04
2023-04-01T00:27:23.448Z,71.33
2023-04-01T00:30:25.928Z,70.74
2023-04-01T00:33:28.607Z,71.23
2023-04-01T00:36:30.770Z,73.54
2023-04-01T00:39:33.802Z,71.95
2023-04-01T00:42:38.061Z,72.52
2023-04-01T00:45:42.097Z,71.86
2023-04-01T00:48:46.415Z,72.88
2023-04-01T00:51:51.365Z,73.16
2023-04-01T00:55:00.155Z,74.14
2023-04-01T00:58:08.680Z,74.75
2023-04-01T01:01:11.619Z,76.28
2023-04-01T01:04:23.421Z,74.12
2023-04-01T01:07:36.949Z,76.56
2023-04-01T01:10:40.170Z,73.26
2023-04-01T01:13:49.788Z,73.45
2023-04-01T01:16:57.651Z,73.37
2023-04-01T01:20:26.879Z,73.62
2023-04-01T01:24:00.631Z,73.91
2023-04-01T01:27:05.872Z,72.36
2023-04-01T01:30:27.708Z,71.92
2023-04-01T01:33:45.816Z,71.07
2023-04-01T01:36:54.776Z,70.21
2023-04-01T01:39:59.506Z,71.76
2023-04-01T01:43:06.661Z,70.83
2023-04-01T01:46:12.664Z,68.55
2023-04-01T01:49:16.525Z,67.10
2023-04-01T01:52:20.106Z,66.23
2023-04-01T01:55:29.745Z,66.39
2023-04-01T01:58:41.397Z,66.68
2023-04-01T02:01:47.687Z,67.13
2023-04-01T02:04:51.576Z,65.95
2023-04-01T02:08:02.344Z,67.30
2023-04-01T02:11:07.807Z,67.43
2023-04-01T02:14:14.781Z,66.98
2023-04-01T02:17:19.097Z,67.25
2023-04-01T02:20:23.833Z,68.24
2023-04-01T02:23:29.012Z,68.29
2023-04-01T02:26:31.618Z,68.09
2023-04-01T02:29:34.588Z,67.78
2023-04-01T02:32:39.352Z,68.01
2023-04-01T02:35:41.589Z,67.69
2023-04-01T02:38:46.489Z,67.86
2023-04-01T02:41:48.394Z,68.25
2023-04-01T02:44:50.371Z,68.39
2023-04-01T02:47:52.321Z,68.32
2023-04-01T02:50:54.353Z,68.39
2023-04-01T02:53:57.590Z,70.21
2023-04-01T02:57:00.536Z,70.09
2023-04-01T03:00:02.448Z,69.56
2023-04-01T03:03:04.850Z,70.95
2023-04-01T03:06:08.165Z,69.17
2023-04-01T03:09:11.738Z,68.80
2023-04-01T03:12:13.706Z,68.19
2023-04-01T03:15:15.868Z,68.23
2023-04-01T03:18:18.659Z,67.82
2023-04-01T03:21:23.190Z,68.22
2023-04-01T03:24:26.711Z,67.78
2023-04-01T03:27:28.619Z,68.13
2023-04-01T03:30:34.744Z,68.01
2023-04-01T03:33:37.738Z,67.90
2023-04-01T03:36:39.646Z,67.60
2023-04-01T03:39:44.638Z,67.62
2023-04-01T03:42:46.903Z,67.63
2023-04-01T03:45:50.829Z,67.78
2023-04-01T03:48:53.275Z,67.65
2023-04-01T03:51:55.163Z,68.92
2023-04-01T03:54:58.672Z,68.68
2023-04-01T03:58:03.014Z,68.10
2023-04-01T04:01:13.941Z,68.77
2023-04-01T04:04:16.210Z,68.92
2023-04-01T04:07:18.129Z,70.19
2023-04-01T04:10:21.803Z,69.60
2023-04-01T04:13:23.694Z,68.48
2023-04-01T04:16:25.919Z,68.79
2023-04-01T04:19:32.313Z,68.17
2023-04-01T04:22:34.238Z,68.75
2023-04-01T04:25:37.512Z,69.55
2023-04-01T04:28:39.645Z,69.67
2023-04-01T04:31:42.227Z,70.09
2023-04-01T04:34:44.145Z,70.38
2023-04-01T04:37:46.093Z,71.21
2023-04-01T04:40:49.421Z,71.00
2023-04-01T04:43:53.963Z,71.34
2023-04-01T04:46:58.348Z,71.22
2023-04-01T04:50:01.258Z,70.50
2023-04-01T04:53:03.303Z,70.01
2023-04-01T04:56:07.026Z,70.56
2023-04-01T04:59:09.197Z,71.28
2023-04-01T05:02:11.323Z,71.67
2023-04-01T05:05:13.232Z,71.12
2023-04-01T05:08:16.249Z,70.79
2023-04-01T05:11:21.489Z,69.79
2023-04-01T05:14:23.337Z,69.59
2023-04-01T05:17:26.267Z,70.00
2023-04-01T05:20:28.225Z,69.94
2023-04-01T05:23:34.209Z,69.01
2023-04-01T05:26:38.046Z,69.89
2023-04-01T05:29:39.885Z,68.85
2023-04-01T05:32:42.064Z,68.81
2023-04-01T05:35:43.978Z,68.54
2023-04-01T05:38:49.129Z,67.82
2023-04-01T05:41:52.359Z,67.58
2023-04-01T05:44:55.119Z,66.93
2023-04-01T05:47:57.088Z,67.04
2023-04-01T05:50:59.935Z,64.57
2023-04-01T05:54:01.832Z,64.02
2023-04-01T05:57:05.275Z,63.66
2023-04-01T06:00:08.456Z,64.95
2023-04-01T06:03:10.585Z,63.67
2023-04-01T06:06:16.745Z,63.90
2023-04-01T06:09:22.712Z,63.33
2023-04-01T06:12:51.488Z,64.32
2023-04-01T06:16:01.459Z,63.16
2023-04-01T06:19:26.817Z,62.61
2023-04-01T06:22:54.846Z,59.95
2023-04-01T06:26:19.348Z,61.08
2023-04-01T06:29:50.028Z,59.92
2023-04-01T06:33:09.209Z,60.34
2023-04-01T06:36:24.921Z,58.34
2023-04-01T06:39:39.220Z,58.23
2023-04-01T06:43:02.089Z,59.24
2023-04-01T06:46:14.993Z,59.95
2023-04-01T06:49:34.863Z,59.40
2023-04-01T06:52:50.252Z,58.58
2023-04-01T06:55:58.565Z,57.97
2023-04-01T06:59:06.592Z,59.36
2023-04-01T07:02:24.244Z,57.53
2023-04-01T07:05:30.351Z,57.00
2023-04-01T07:08:37.963Z,56.27
2023-04-01T07:11:41.314Z,56.84
2023-04-01T07:14:45.848Z,56.91
2023-04-01T07:17:54.890Z,56.06
2023-04-01T07:20:58.896Z,56.61
2023-04-01T07:24:05.525Z,56.64
2023-04-01T07:27:10.996Z,55.42
2023-04-01T07:30:17.230Z,55.78
2023-04-01T07:33:27.355Z,54.65
2023-04-01T07:36:36.228Z,54.62
2023-04-01T07:39:48.580Z,54.39
2023-04-01T07:43:06.586Z,56.64
2023-04-01T07:46:19.153Z,54.07
2023-04-01T07:49:31.863Z,55.14
2023-04-01T07:52:40.050Z,54.48
2023-04-01T07:55:49.170Z,55.28
2023-04-01T07:59:00.470Z,55.07
2023-04-01T08:02:11.163Z,56.73
2023-04-01T08:05:23.494Z,61.01
2023-04-01T08:08:36.934Z,60.89
2023-04-01T08:11:52.368Z,60.08
2023-04-01T08:15:05.861Z,60.39
2023-04-01T08:18:19.021Z,58.72
2023-04-01T08:21:26.483Z,60.06
2023-04-01T08:24:44.716Z,59.15
2023-04-01T08:27:54.550Z,58.74
2023-04-01T08:31:02.860Z,58.75
2023-04-01T08:34:07.100Z,57.20
2023-04-01T08:37:15.322Z,55.42
2023-04-01T08:40:56.647Z,54.22
2023-04-01T08:44:21.769Z,54.40
2023-04-01T08:47:53.903Z,53.76
2023-04-01T08:51:25.113Z,54.00
2023-04-01T08:54:47.258Z,53.73
2023-04-01T08:58:02.895Z,53.22
2023-04-01T09:01:15.350Z,52.90
2023-04-01T09:05:04.375Z,63.69
2023-04-01T09:08:21.210Z,62.93
2023-04-01T09:11:32.309Z,62.37
2023-04-01T09:14:57.881Z,63.62
2023-04-01T09:18:21.374Z,58.79
2023-04-01T09:21:33.104Z,59.35
2023-04-01T09:25:10.746Z,60.64
2023-04-01T09:28:19.701Z,59.17
2023-04-01T09:31:42.208Z,59.51
2023-04-01T09:34:56.116Z,60.04
2023-04-01T09:38:19.073Z,61.21
2023-04-01T09:41:30.686Z,60.17
2023-04-01T09:44:36.153Z,61.64
2023-04-01T09:47:52.105Z,60.43
2023-04-01T09:51:04.177Z,60.68
2023-04-01T09:54:14.828Z,60.49
2023-04-01T09:57:56.340Z,59.94
2023-04-01T10:01:19.721Z,60.29
2023-04-01T10:05:06.953Z,59.25
2023-04-01T10:08:38.196Z,59.30
2023-04-01T10:12:19.933Z,59.25
2023-04-01T10:15:42.055Z,59.08
2023-04-01T10:19:11.553Z,60.33
2023-04-01T10:22:29.042Z,61.14
2023-04-01T10:25:58.153Z,61.77
2023-04-01T10:29:49.123Z,60.41
2023-04-01T10:33:39.385Z,59.21
2023-04-01T10:36:52.314Z,58.57
2023-04-01T10:40:26.572Z,59.49
2023-04-01T10:44:21.822Z,58.47
2023-04-01T10:47:44.918Z,58.54
2023-04-01T10:51:12.857Z,57.36
2023-04-01T10:54:42.415Z,56.46
2023-04-01T10:58:11.691Z,54.71
2023-04-01T11:01:37.638Z,54.57
2023-04-01T11:05:09.004Z,54.30
2023-04-01T11:08:41.507Z,53.18
2023-04-01T11:12:13.637Z,52.88
2023-04-01T11:15:48.033Z,51.11
2023-04-01T11:19:20.642Z,53.83
2023-04-01T11:22:42.531Z,53.11
2023-04-01T11:25:57.120Z,54.11
2023-04-01T11:29:30.188Z,54.40
2023-04-01T11:32:54.113Z,57.02
2023-04-01T11:36:12.970Z,55.89
2023-04-01T11:39:24.906Z,57.20
2023-04-01T11:42:41.521Z,55.57
2023-04-01T11:45:51.845Z,55.04
2023-04-01T11:49:07.755Z,56.07
2023-04-01T11:52:22.833Z,56.38
2023-04-01T11:55:33.376Z,55.89
2023-04-01T11:58:47.936Z,55.30
2023-04-01T12:02:04.304Z,54.49
2023-04-01T12:05:35.894Z,54.50
2023-04-01T12:08:47.660Z,53.27
2023-04-01T12:12:00.688Z,53.26
2023-04-01T12:15:18.962Z,53.58
2023-04-01T12:18:28.295Z,54.55
2023-04-01T12:21:37.405Z,53.86
2023-04-01T12:24:50.463Z,54.28
2023-04-01T12:28:06.716Z,55.21
2023-04-01T12:31:20.485Z,55.30
2023-04-01T12:34:58.981Z,56.17
2023-04-01T12:38:17.644Z,53.53
2023-04-01T12:41:27.792Z,53.28
2023-04-01T12:44:41.242Z,52.54
2023-04-01T12:48:08.415Z,52.54
2023-04-01T12:51:38.605Z,53.22
2023-04-01T12:55:34.197Z,52.84
2023-04-01T12:59:08.745Z,51.99
2023-04-01T13:02:19.064Z,52.05
2023-04-01T13:05:56.983Z,51.91
2023-04-01T13:09:17.982Z,52.57
2023-04-01T13:12:44.361Z,52.21
2023-04-01T13:15:53.161Z,52.63
2023-04-01T13:19:00.957Z,51.36
2023-04-01T13:22:12.637Z,50.88
2023-04-01T13:25:29.047Z,49.72
2023-04-01T13:28:37.561Z,49.60
2023-04-01T13:31:56.326Z,48.01
2023-04-01T13:35:13.434Z,48.19
2023-04-01T13:38:40.543Z,48.24
2023-04-01T13:42:03.557Z,47.59
2023-04-01T13:45:15.394Z,48.90
2023-04-01T13:48:32.696Z,49.60
2023-04-01T13:52:10.017Z,47.88
2023-04-01T13:55:44.605Z,48.38
2023-04-01T13:59:06.549Z,49.10
2023-04-01T14:02:30.978Z,50.60
2023-04-01T14:05:57.406Z,51.85
2023-04-01T14:09:42.417Z,53.25
2023-04-01T14:12:52.607Z,53.33
2023-04-01T14:16:07.993Z,54.42
2023-04-01T14:19:27.732Z,53.80
2023-04-01T14:22:38.517Z,53.39
2023-04-01T14:26:18.847Z,51.84
2023-04-01T14:29:33.628Z,51.41
2023-04-01T14:32:47.795Z,50.78
2023-04-01T14:36:05.322Z,51.08
2023-04-01T14:39:30.516Z,49.63
2023-04-01T14:42:54.509Z,49.95
2023-04-01T14:46:15.056Z,49.01
2023-04-01T14:49:22.968Z,49.34
2023-04-01T14:52:29.834Z,50.16
2023-04-01T14:55:35.934Z,50.93
2023-04-01T14:58:45.406Z,51.91
2023-04-01T15:01:57.258Z,53.62
2023-04-01T15:05:15.998Z,53.58
2023-04-01T15:08:22.471Z,52.46
2023-04-01T15:11:39.217Z,52.88
2023-04-01T15:14:58.011Z,51.94
2023-04-01T15:18:11.426Z,51.46
2023-04-01T15:21:20.283Z,51.57
2023-04-01T15:24:25.705Z,51.66
2023-04-01T15:27:43.897Z,51.14
2023-04-01T15:30:53.100Z,50.73
2023-04-01T15:34:21.328Z,50.62
2023-04-01T15:37:39.698Z,48.50
2023-04-01T15:40:48.156Z,48.28
2023-04-01T15:43:53.427Z,47.10
2023-04-01T15:46:58.222Z,47.11
2023-04-01T15:50:23.160Z,47.12
2023-04-01T15:53:45.200Z,46.86
2023-04-01T15:57:05.583Z,46.20
2023-04-01T16:00:20.802Z,46.63
2023-04-01T16:03:36.012Z,46.20
2023-04-01T16:07:02.373Z,45.79
2023-04-01T16:10:22.899Z,46.68
2023-04-01T16:13:36.534Z,46.20
2023-04-01T16:16:54.902Z,47.52
2023-04-01T16:20:01.111Z,47.18
2023-04-01T16:23:13.161Z,47.28
2023-04-01T16:26:23.738Z,46.89
2023-04-01T16:29:36.511Z,46.67
2023-04-01T16:32:45.912Z,48.37
2023-04-01T16:35:57.022Z,49.08
2023-04-01T16:39:37.476Z,48.68
2023-04-01T16:42:50.863Z,49.20
2023-04-01T16:46:04.023Z,49.29
2023-04-01T16:49:24.392Z,49.55
2023-04-01T16:52:44.659Z,49.84
2023-04-01T16:55:52.736Z,49.51
2023-04-01T16:59:03.882Z,51.34
2023-04-01T17:02:14.527Z,51.75
2023-04-01T17:05:16.841Z,53.22
2023-04-01T17:08:31.532Z,53.50
2023-04-01T17:11:41.771Z,54.52
2023-04-01T17:14:53.028Z,57.09
2023-04-01T17:18:04.964Z,58.21
2023-04-01T17:21:11.717Z,57.69
2023-04-01T17:24:30.320Z,58.69
2023-04-01T17:27:49.772Z,61.55
2023-04-01T17:31:03.706Z,62.10
2023-04-01T17:34:28.468Z,63.30
2023-04-01T17:37:47.580Z,63.00
2023-04-01T17:41:04.705Z,63.32
2023-04-01T17:44:25.185Z,64.83
2023-04-01T17:47:51.960Z,63.68
2023-04-01T17:51:09.813Z,63.80
2023-04-01T17:54:26.100Z,63.39
2023-04-01T17:57:45.678Z,63.69
2023-04-01T18:01:01.979Z,66.27
2023-04-01T18:04:49.443Z,64.08
2023-04-01T18:08:10.522Z,66.60
2023-04-01T18:11:24.791Z,66.01
2023-04-01T18:14:51.888Z,66.92
2023-04-01T18:18:07.248Z,66.97
2023-04-01T18:21:23.624Z,66.74
2023-04-01T18:24:31.863Z,67.22
2023-04-01T18:27:40.436Z,66.82
2023-04-01T18:30:45.717Z,67.47
2023-04-01T18:33:59.412Z,65.38
2023-04-01T18:37:18.932Z,65.73
2023-04-01T18:40:28.496Z,65.92
2023-04-01T18:43:40.661Z,66.19
2023-04-01T18:46:53.814Z,69.47
2023-04-01T18:50:03.194Z,69.59
2023-04-01T18:53:23.838Z,68.39
2023-04-01T18:56:32.047Z,68.58
2023-04-01T18:59:42.600Z,69.66
2023-04-01T19:02:52.960Z,69.73
2023-04-01T19:06:02.536Z,69.00
2023-04-01T19:09:19.887Z,67.52
2023-04-01T19:12:39.858Z,66.98
2023-04-01T19:15:52.043Z,66.37
2023-04-01T19:19:09.484Z,66.70
2023-04-01T19:22:29.283Z,66.35
2023-04-01T19:25:40.260Z,65.45
2023-04-01T19:28:54.971Z,66.49
2023-04-01T19:32:06.475Z,65.93
2023-04-01T19:35:20.818Z,65.69
2023-04-01T19:38:38.664Z,64.93
2023-04-01T19:41:49.748Z,67.75
2023-04-01T19:45:06.153Z,67.42
2023-04-01T19:48:27.594Z,69.15
2023-04-01T19:51:36.781Z,68.06
2023-04-01T19:54:47.846Z,67.64
2023-04-01T19:58:03.177Z,69.79
2023-04-01T20:01:11.398Z,67.08
2023-04-01T20:04:19.691Z,66.23
2023-04-01T20:07:29.223Z,64.95
2023-04-01T20:10:37.245Z,64.58
2023-04-01T20:13:52.780Z,63.73
2023-04-01T20:17:04.507Z,62.57
2023-04-01T20:20:21.824Z,62.03
2023-04-01T20:23:43.794Z,61.55
2023-04-01T20:26:52.125Z,62.14
2023-04-01T20:30:18.725Z,63.20
2023-04-01T20:33:43.826Z,63.57
2023-04-01T20:36:59.178Z,62.74
2023-04-01T20:40:25.246Z,62.73
2023-04-01T20:43:59.114Z,62.85
2023-04-01T20:47:16.192Z,62.72
2023-04-01T20:50:27.845Z,63.07
2023-04-01T20:53:38.721Z,63.29
2023-04-01T20:56:57.243Z,62.67
2023-04-01T21:00:25.800Z,62.75
2023-04-01T21:03:41.868Z,64.45
2023-04-01T21:07:10.554Z,63.00
2023-04-01T21:10:41.164Z,62.68
2023-04-01T21:13:55.641Z,63.39
2023-04-01T21:17:09.685Z,64.54
2023-04-01T21:20:30.042Z,64.50
2023-04-01T21:23:48.526Z,64.42
2023-04-01T21:26:56.763Z,66.17
2023-04-01T21:30:08.583Z,65.16
2023-04-01T21:33:28.021Z,64.40
2023-04-01T21:36:52.230Z,63.17
2023-04-01T21:40:12.379Z,61.02
2023-04-01T21:43:26.365Z,58.09
2023-04-01T21:47:09.510Z,57.14
2023-04-01T21:50:36.083Z,57.79
2023-04-01T21:54:08.332Z,56.82
2023-04-01T21:57:38.279Z,58.10
2023-04-01T22:00:49.677Z,57.51
2023-04-01T22:04:27.780Z,57.54
2023-04-01T22:07:38.686Z,57.48
2023-04-01T22:10:48.106Z,57.28
2023-04-01T22:13:56.081Z,57.15
2023-04-01T22:16:59.416Z,56.54
2023-04-01T22:20:17.693Z,57.05
2023-04-01T22:23:27.435Z,58.11
2023-04-01T22:26:38.303Z,57.52
2023-04-01T22:29:44.400Z,57.82
2023-04-01T22:32:49.510Z,57.47
2023-04-01T22:35:59.586Z,57.03
2023-04-01T22:39:12.727Z,57.93
2023-04-01T22:42:35.484Z,57.53
2023-04-01T22:46:05.762Z,57.69
2023-04-01T22:49:17.616Z,58.92
2023-04-01T22:52:29.715Z,58.96
2023-04-01T22:55:35.001Z,59.46
2023-04-01T22:58:43.786Z,59.80
2023-04-01T23:01:50.693Z,60.30
2023-04-01T23:05:02.415Z,60.71
2023-04-01T23:08:25.619Z,60.27
2023-04-01T23:11:31.162Z,61.06
2023-04-01T23:14:50.562Z,61.55
2023-04-01T23:18:13.871Z,61.43
2023-04-01T23:21:22.490Z,61.10
2023-04-01T23:24:31.814Z,61.33
2023-04-01T23:27:40.025Z,61.75
2023-04-01T23:30:51.242Z,61.15
2023-04-01T23:33:55.855Z,61.07
2023-04-01T23:37:01.949Z,60.91
2023-04-01T23:40:06.152Z,61.10
2023-04-01T23:43:15.495Z,61.01
2023-04-01T23:46:18.799Z,60.93
2023-04-01T23:49:24.056Z,61.48
2023-04-01T23:52:28.792Z,61.12
2023-04-01T23:55:33.668Z,61.00
2023-04-01T23:58:45.103Z,60.64
